Time;durP1;ratioP1;P1;durP2;ratioP2;P2;SDS_P1;SDS_P2;PMS_P1;PMS_P2;Temp;Humidity;BMP_temperature;BMP_pressure;BME280_temperature;BME280_humidity;BME280_pressure;Samples;Min_cycle;Max_cycle;Signal;HPM_P1;HPM_P2
2023/08/10 00:01:42;;;;;;;3.37;2.07;;;;;;;;;;5012221;28;20181;-82
2023/08/10 00:04:46;;;;;;;3.73;2.10;;;;;;;;;;5012015;28;20177;-82
2023/08/10 00:07:50;;;;;;;3.53;2.30;;;;;;;;;;5022968;28;20173;-82
2023/08/10 00:10:55;;;;;;;3.53;2.53;;;;;;;;;;5012112;28;20176;-82
2023/08/10 00:14:00;;;;;;;2.43;2.23;;;;;;;;;;5011869;28;20205;-82
2023/08/10 00:17:04;;;;;;;2.93;2.40;;;;;;;;;;5011998;28;20176;-82
2023/08/10 00:20:10;;;;;;;2.73;2.10;;;;;;;;;;5012261;28;20216;-81
2023/08/10 00:23:14;;;;;;;2.60;2.40;;;;;;;;;;5011533;28;20185;-81
2023/08/10 00:26:18;;;;;;;3.80;2.83;;;;;;;;;;5011685;28;20513;-82
2023/08/10 00:29:23;;;;;;;3.83;2.47;;;;;;;;;;5012129;28;20545;-81
2023/08/10 00:32:27;;;;;;;3.67;2.63;;;;;;;;;;5022490;28;20185;-82
2023/08/10 00:35:31;;;;;;;4.93;3.03;;;;;;;;;;5033989;28;20209;-82
2023/08/10 00:38:38;;;;;;;4.67;2.77;;;;;;;;;;5000074;28;20208;-81
2023/08/10 00:41:42;;;;;;;4.50;2.27;;;;;;;;;;5022903;28;20177;-82
2023/08/10 00:44:46;;;;;;;3.47;2.90;;;;;;;;;;5011475;28;20173;-82
2023/08/10 00:47:52;;;;;;;6.27;2.93;;;;;;;;;;5022978;28;20184;-82
2023/08/10 00:50:56;;;;;;;3.90;2.83;;;;;;;;;;5011231;28;20180;-82
2023/08/10 00:54:02;;;;;;;3.00;2.60;;;;;;;;;;5011379;28;20208;-82
2023/08/10 00:57:06;;;;;;;4.60;2.43;;;;;;;;;;5024480;28;20180;-82
2023/08/10 01:00:11;;;;;;;3.47;2.40;;;;;;;;;;5026197;28;20591;-81
2023/08/10 01:03:16;;;;;;;4.13;2.50;;;;;;;;;;5026734;28;20176;-81
2023/08/10 01:06:42;;;;;;;2.80;2.47;;;;;;;;;;5015544;28;20177;-82
2023/08/10 01:10:02;;;;;;;3.60;2.43;;;;;;;;;;5015588;28;20216;-81
2023/08/10 01:13:17;;;;;;;3.23;2.67;;;;;;;;;;5015203;28;20184;-82
2023/08/10 01:16:22;;;;;;;5.27;2.83;;;;;;;;;;5025776;28;20169;-82
2023/08/10 01:19:36;;;;;;;3.77;2.60;;;;;;;;;;5026515;28;20714;-82
2023/08/10 01:23:07;;;;;;;3.13;2.37;;;;;;;;;;5015692;28;20181;-82
2023/08/10 01:26:11;;;;;;;3.90;2.37;;;;;;;;;;5026730;28;20516;-81
2023/08/10 01:29:15;;;;;;;5.43;2.73;;;;;;;;;;5016112;28;20216;-82
2023/08/10 01:32:20;;;;;;;4.60;3.33;;;;;;;;;;5015999;28;20185;-82
2023/08/10 01:35:24;;;;;;;3.73;3.00;;;;;;;;;;5016257;28;20213;-81
2023/08/10 01:38:29;;;;;;;4.00;3.20;;;;;;;;;;5015715;28;20212;-81
2023/08/10 01:41:34;;;;;;;3.10;2.80;;;;;;;;;;5015469;28;20177;-82
2023/08/10 01:44:38;;;;;;;3.30;2.90;;;;;;;;;;5016263;28;20177;-82
2023/08/10 01:47:54;;;;;;;3.40;3.10;;;;;;;;;;5026319;28;20201;-82
2023/08/10 01:51:02;;;;;;;3.53;2.70;;;;;;;;;;5014390;28;20181;-82
2023/08/10 01:54:09;;;;;;;5.57;3.10;;;;;;;;;;5025987;28;20200;-82
2023/08/10 01:57:14;;;;;;;3.50;2.70;;;;;;;;;;5014448;28;20201;-82
2023/08/10 02:00:18;;;;;;;3.63;3.23;;;;;;;;;;5014674;28;20173;-82
2023/08/10 02:03:24;;;;;;;6.37;2.90;;;;;;;;;;5026166;28;20196;-82
2023/08/10 02:06:30;;;;;;;3.10;2.80;;;;;;;;;;5014943;28;20177;-81
2023/08/10 02:09:35;;;;;;;3.60;3.10;;;;;;;;;;5026036;28;20220;-82
2023/08/10 02:12:40;;;;;;;3.17;2.60;;;;;;;;;;5025941;28;20204;-82
2023/08/10 02:15:44;;;;;;;3.03;2.73;;;;;;;;;;5015037;28;20675;-82
2023/08/10 02:18:48;;;;;;;3.80;3.07;;;;;;;;;;5025895;28;20220;-82
2023/08/10 02:21:53;;;;;;;4.37;2.53;;;;;;;;;;5026223;28;20180;-82
2023/08/10 02:24:57;;;;;;;3.70;3.33;;;;;;;;;;5025653;28;20647;-82
2023/08/10 02:28:02;;;;;;;4.33;3.20;;;;;;;;;;5014517;28;20177;-82
2023/08/10 02:31:05;;;;;;;3.70;2.83;;;;;;;;;;5025793;28;20177;-81
2023/08/10 02:34:09;;;;;;;3.93;3.03;;;;;;;;;;5025647;28;20209;-82
2023/08/10 02:37:14;;;;;;;3.40;3.10;;;;;;;;;;5025792;28;20176;-81
2023/08/10 02:40:18;;;;;;;3.50;2.70;;;;;;;;;;5026278;28;20181;-81
2023/08/10 02:43:22;;;;;;;5.03;3.17;;;;;;;;;;5025319;28;20635;-81
2023/08/10 02:46:26;;;;;;;4.10;3.47;;;;;;;;;;5025402;28;20181;-82
2023/08/10 02:49:30;;;;;;;6.17;3.53;;;;;;;;;;5013573;28;20224;-81
2023/08/10 02:52:34;;;;;;;3.67;3.20;;;;;;;;;;5014114;28;20222;-82
2023/08/10 02:55:39;;;;;;;4.13;3.30;;;;;;;;;;5014038;28;20220;-82
2023/08/10 02:58:43;;;;;;;5.23;3.40;;;;;;;;;;5013857;28;20228;-82
2023/08/10 03:01:47;;;;;;;3.87;3.50;;;;;;;;;;5013365;28;20181;-82
2023/08/10 03:04:52;;;;;;;5.37;4.00;;;;;;;;;;5024612;28;20189;-82
2023/08/10 03:07:56;;;;;;;5.53;4.90;;;;;;;;;;5013448;28;20525;-81
2023/08/10 03:11:01;;;;;;;5.13;4.20;;;;;;;;;;5005839;28;20188;-82
2023/08/10 03:14:06;;;;;;;4.93;4.27;;;;;;;;;;5016580;28;20188;-82
2023/08/10 03:17:10;;;;;;;5.17;4.67;;;;;;;;;;5016224;28;20189;-82
2023/08/10 03:20:16;;;;;;;5.63;4.33;;;;;;;;;;5015438;28;20172;-82
2023/08/10 03:23:22;;;;;;;5.07;4.53;;;;;;;;;;5004854;28;20202;-82
2023/08/10 03:26:27;;;;;;;8.67;6.03;;;;;;;;;;5015405;28;20173;-82
2023/08/10 03:29:31;;;;;;;5.90;4.90;;;;;;;;;;5013153;28;20561;-82
2023/08/10 03:32:37;;;;;;;6.77;4.73;;;;;;;;;;5013080;28;20184;-82
2023/08/10 03:35:41;;;;;;;5.13;4.63;;;;;;;;;;5024482;28;20208;-81
2023/08/10 03:38:45;;;;;;;5.17;4.20;;;;;;;;;;5013310;28;20212;-82
2023/08/10 03:41:50;;;;;;;5.47;4.97;;;;;;;;;;5024284;28;20181;-82
2023/08/10 03:44:55;;;;;;;5.10;4.10;;;;;;;;;;5024862;28;20513;-82
2023/08/10 03:47:59;;;;;;;4.37;3.97;;;;;;;;;;5013417;28;20177;-81
2023/08/10 03:51:04;;;;;;;5.67;4.40;;;;;;;;;;5013570;28;20173;-82
2023/08/10 03:54:08;;;;;;;5.70;5.00;;;;;;;;;;5001750;28;20180;-82
2023/08/10 03:57:13;;;;;;;5.77;5.17;;;;;;;;;;5024694;28;20513;-82
2023/08/10 04:00:18;;;;;;;6.57;5.40;;;;;;;;;;5035242;23;20224;-84
2023/08/10 04:03:21;;;;;;;7.03;5.37;;;;;;;;;;5021562;28;20197;-84
2023/08/10 04:06:26;;;;;;;6.50;5.27;;;;;;;;;;5000082;28;20513;-84
2023/08/10 04:09:30;;;;;;;5.17;4.47;;;;;;;;;;5002512;28;20572;-80
2023/08/10 04:12:36;;;;;;;6.80;4.50;;;;;;;;;;5014987;28;20185;-80
2023/08/10 04:15:40;;;;;;;6.17;5.03;;;;;;;;;;5025991;28;20213;-80
2023/08/10 04:18:44;;;;;;;6.13;4.33;;;;;;;;;;5015545;28;20181;-81
2023/08/10 04:21:48;;;;;;;6.63;3.60;;;;;;;;;;5015507;28;20176;-81
2023/08/10 04:24:52;;;;;;;6.77;3.63;;;;;;;;;;5015528;28;20180;-81
2023/08/10 04:27:57;;;;;;;5.10;3.00;;;;;;;;;;5015123;28;20624;-81
2023/08/10 04:31:01;;;;;;;4.13;3.03;;;;;;;;;;5021540;28;20556;-84
2023/08/10 04:34:05;;;;;;;3.90;3.50;;;;;;;;;;5009642;28;20177;-84
2023/08/10 04:37:09;;;;;;;4.27;3.60;;;;;;;;;;5021604;28;20181;-84
2023/08/10 04:40:14;;;;;;;4.10;3.70;;;;;;;;;;5009870;28;20220;-84
2023/08/10 04:43:18;;;;;;;5.47;3.97;;;;;;;;;;5021893;28;20184;-83
2023/08/10 04:46:22;;;;;;;4.50;3.43;;;;;;;;;;5010276;28;20517;-84
2023/08/10 04:49:28;;;;;;;7.33;3.50;;;;;;;;;;5010036;28;20212;-84
2023/08/10 04:52:32;;;;;;;5.57;3.20;;;;;;;;;;5021166;28;20181;-84
2023/08/10 04:55:37;;;;;;;4.67;2.90;;;;;;;;;;5020865;28;20213;-84
2023/08/10 04:58:41;;;;;;;3.40;3.10;;;;;;;;;;5010343;28;20501;-84
2023/08/10 05:01:30;;;;;;;3.93;3.10;;;;;;;;;;5110971;27;20827;-71
2023/08/10 05:04:34;;;;;;;5.00;3.70;;;;;;;;;;5110949;28;20201;-71
2023/08/10 05:07:39;;;;;;;3.97;3.57;;;;;;;;;;5110863;28;20570;-71
2023/08/10 05:10:43;;;;;;;4.50;4.10;;;;;;;;;;5109848;28;20209;-71
2023/08/10 05:13:48;;;;;;;5.93;3.97;;;;;;;;;;5110790;28;20540;-71
2023/08/10 05:16:51;;;;;;;5.70;4.20;;;;;;;;;;5110691;28;20178;-71
2023/08/10 05:19:55;;;;;;;4.57;3.70;;;;;;;;;;5110564;28;20206;-71
2023/08/10 05:23:00;;;;;;;4.73;3.40;;;;;;;;;;5109733;28;20179;-71
2023/08/10 05:26:04;;;;;;;4.53;3.63;;;;;;;;;;5110856;28;20178;-72
2023/08/10 05:29:08;;;;;;;4.67;3.93;;;;;;;;;;5109755;28;20174;-71
2023/08/10 05:32:12;;;;;;;7.37;5.10;;;;;;;;;;5110551;28;20202;-71
2023/08/10 05:35:17;;;;;;;10.77;5.20;;;;;;;;;;5097920;28;20623;-71
2023/08/10 05:38:21;;;;;;;12.00;7.17;;;;;;;;;;5109533;28;20202;-71
2023/08/10 05:41:25;;;;;;;15.43;8.83;;;;;;;;;;5110346;28;20221;-71
2023/08/10 05:44:30;;;;;;;13.13;8.97;;;;;;;;;;5097700;28;20198;-72
2023/08/10 05:47:35;;;;;;;15.63;11.27;;;;;;;;;;5110206;28;20182;-72
2023/08/10 05:50:40;;;;;;;14.43;11.27;;;;;;;;;;5110401;28;20545;-72
2023/08/10 05:53:44;;;;;;;50.73;37.27;;;;;;;;;;5110257;28;20178;-72
2023/08/10 05:56:48;;;;;;;32.87;25.07;;;;;;;;;;5110012;28;20194;-72
2023/08/10 05:59:53;;;;;;;28.73;20.70;;;;;;;;;;5109148;28;20217;-72
2023/08/10 06:02:57;;;;;;;24.70;15.93;;;;;;;;;;5109920;28;20525;-71
2023/08/10 06:06:06;;;;;;;24.10;14.30;;;;;;;;;;5109900;28;20174;-71
2023/08/10 06:09:13;;;;;;;20.87;12.60;;;;;;;;;;5109891;28;20538;-71
2023/08/10 06:12:18;;;;;;;12.47;7.07;;;;;;;;;;5098604;28;20546;-71
2023/08/10 06:15:22;;;;;;;5.83;3.90;;;;;;;;;;5096019;28;20175;-72
2023/08/10 06:18:26;;;;;;;4.37;3.70;;;;;;;;;;5095098;28;20190;-71
2023/08/10 06:21:30;;;;;;;4.70;3.70;;;;;;;;;;5094969;28;20218;-71
2023/08/10 06:24:35;;;;;;;8.23;4.27;;;;;;;;;;5095953;28;20526;-72
2023/08/10 06:27:40;;;;;;;5.47;4.70;;;;;;;;;;5095923;28;20175;-72
2023/08/10 06:30:44;;;;;;;7.10;5.33;;;;;;;;;;5095985;28;20561;-72
2023/08/10 06:33:48;;;;;;;6.57;4.90;;;;;;;;;;5095006;28;20179;-71
2023/08/10 06:36:52;;;;;;;5.10;4.13;;;;;;;;;;5095684;28;20174;-72
2023/08/10 06:39:57;;;;;;;7.07;4.07;;;;;;;;;;5095870;28;20203;-71
2023/08/10 06:43:01;;;;;;;4.90;4.40;;;;;;;;;;5095129;28;20179;-71
2023/08/10 06:46:17;;;;;;;5.20;4.07;;;;;;;;;;5084779;28;20179;-72
2023/08/10 06:49:23;;;;;;;5.90;4.10;;;;;;;;;;5094929;28;20625;-72
2023/08/10 06:52:27;;;;;;;4.10;3.70;;;;;;;;;;5095293;28;20696;-72
2023/08/10 06:55:31;;;;;;;4.40;3.67;;;;;;;;;;5095926;28;20175;-72
2023/08/10 06:58:36;;;;;;;6.17;3.20;;;;;;;;;;5095617;28;20183;-72
2023/08/10 07:01:40;;;;;;;4.47;2.80;;;;;;;;;;5095090;28;20222;-71
2023/08/10 07:04:45;;;;;;;3.87;3.47;;;;;;;;;;5094327;28;20179;-72
2023/08/10 07:07:49;;;;;;;4.23;3.20;;;;;;;;;;5095241;28;20175;-72
2023/08/10 07:10:53;;;;;;;3.27;2.97;;;;;;;;;;5095324;28;20206;-71
2023/08/10 07:13:57;;;;;;;3.73;2.60;;;;;;;;;;5094422;28;20179;-72
2023/08/10 07:17:02;;;;;;;3.37;3.07;;;;;;;;;;5094832;28;20657;-72
2023/08/10 07:20:08;;;;;;;4.77;3.10;;;;;;;;;;5095101;28;20202;-72
2023/08/10 07:23:17;;;;;;;5.90;2.70;;;;;;;;;;5093822;28;20179;-72
2023/08/10 07:26:21;;;;;;;3.50;3.20;;;;;;;;;;5094703;28;20174;-72
2023/08/10 07:29:25;;;;;;;3.77;3.17;;;;;;;;;;5094682;28;20184;-72
2023/08/10 07:32:29;;;;;;;3.33;3.03;;;;;;;;;;5094525;28;20210;-72
2023/08/10 07:35:34;;;;;;;3.47;2.70;;;;;;;;;;5094067;28;20179;-72
2023/08/10 07:38:38;;;;;;;4.33;1.83;;;;;;;;;;5094568;28;20191;-72
2023/08/10 07:41:42;;;;;;;2.33;1.83;;;;;;;;;;5093642;28;20222;-72
2023/08/10 07:44:46;;;;;;;3.33;1.97;;;;;;;;;;5082256;28;20179;-72
2023/08/10 07:47:50;;;;;;;2.30;1.70;;;;;;;;;;5094466;28;20178;-72
2023/08/10 07:50:54;;;;;;;2.93;1.90;;;;;;;;;;5094413;28;20205;-72
2023/08/10 07:53:59;;;;;;;2.30;2.10;;;;;;;;;;5094109;28;20179;-71
2023/08/10 07:57:04;;;;;;;3.00;2.13;;;;;;;;;;5094474;28;20178;-72
2023/08/10 08:00:10;;;;;;;2.63;2.07;;;;;;;;;;5093997;28;20199;-72
2023/08/10 08:03:17;;;;;;;2.93;1.80;;;;;;;;;;5093796;28;20183;-71
2023/08/10 08:06:23;;;;;;;2.07;1.60;;;;;;;;;;5094292;28;20621;-72
2023/08/10 08:09:27;;;;;;;1.50;1.40;;;;;;;;;;5093137;28;20178;-72
2023/08/10 08:12:32;;;;;;;2.47;1.50;;;;;;;;;;5093812;28;20206;-72
2023/08/10 08:15:38;;;;;;;2.17;1.30;;;;;;;;;;5093785;28;20175;-72
2023/08/10 08:18:50;;;;;;;1.67;1.40;;;;;;;;;;5093291;28;20179;-71
2023/08/10 08:21:54;;;;;;;3.27;1.47;;;;;;;;;;5093391;28;20214;-72
2023/08/10 08:24:58;;;;;;;1.27;1.17;;;;;;;;;;5094040;28;20175;-72
2023/08/10 08:28:02;;;;;;;2.87;2.17;;;;;;;;;;5093857;28;20171;-72
2023/08/10 08:31:06;;;;;;;3.90;1.50;;;;;;;;;;5081316;28;20214;-72
2023/08/10 08:34:10;;;;;;;4.30;2.00;;;;;;;;;;5093598;28;20175;-72
2023/08/10 08:37:14;;;;;;;4.63;2.47;;;;;;;;;;5081453;28;20180;-71
2023/08/10 08:40:19;;;;;;;2.80;1.40;;;;;;;;;;5092484;28;20517;-71
2023/08/10 08:43:24;;;;;;;1.20;1.10;;;;;;;;;;5093708;28;20181;-71
2023/08/10 08:46:30;;;;;;;1.43;1.17;;;;;;;;;;5081076;28;20170;-72
2023/08/10 08:49:35;;;;;;;1.57;1.13;;;;;;;;;;5093905;28;20178;-72
2023/08/10 08:52:41;;;;;;;2.65;1.20;;;;;;;;;;5092416;28;20555;-72
2023/08/10 08:55:48;;;;;;;1.20;1.10;;;;;;;;;;5092744;28;20185;-72
2023/08/10 08:58:53;;;;;;;3.50;1.85;;;;;;;;;;5081089;28;20632;-72
2023/08/10 09:01:59;;;;;;;2.65;1.58;;;;;;;;;;5093148;28;20223;-71
2023/08/10 09:05:03;;;;;;;1.90;1.08;;;;;;;;;;5093416;28;20184;-72
2023/08/10 09:08:08;;;;;;;2.47;1.10;;;;;;;;;;5093272;28;20176;-72
2023/08/10 09:11:14;;;;;;;3.13;1.30;;;;;;;;;;5093184;28;20212;-71
2023/08/10 09:14:18;;;;;;;1.20;0.90;;;;;;;;;;5093043;28;20194;-72
2023/08/10 09:17:22;;;;;;;1.40;1.05;;;;;;;;;;5093062;28;20197;-72
2023/08/10 09:20:28;;;;;;;2.45;1.13;;;;;;;;;;5092840;28;20203;-72
2023/08/10 09:23:35;;;;;;;2.17;1.05;;;;;;;;;;5093136;28;20205;-72
2023/08/10 09:26:40;;;;;;;1.48;1.33;;;;;;;;;;5092471;28;20177;-72
2023/08/10 09:29:45;;;;;;;4.82;3.33;;;;;;;;;;5092454;28;20182;-72
2023/08/10 09:32:49;;;;;;;1.60;1.10;;;;;;;;;;5092399;28;20182;-73
2023/08/10 09:35:58;;;;;;;1.10;1.00;;;;;;;;;;5092164;28;20592;-73
2023/08/10 09:39:03;;;;;;;2.08;1.02;;;;;;;;;;5092977;28;20543;-73
2023/08/10 09:42:07;;;;;;;1.23;0.90;;;;;;;;;;5092716;28;20223;-73
2023/08/10 09:45:12;;;;;;;1.55;1.08;;;;;;;;;;5092692;28;20179;-72
2023/08/10 09:48:17;;;;;;;1.63;1.10;;;;;;;;;;5083962;28;20172;-73
2023/08/10 09:51:21;;;;;;;2.00;0.93;;;;;;;;;;5095684;28;20207;-73
2023/08/10 09:54:26;;;;;;;2.20;1.23;;;;;;;;;;5095734;28;20183;-73
2023/08/10 09:57:30;;;;;;;3.00;1.15;;;;;;;;;;5097083;28;20183;-73
2023/08/10 10:00:38;;;;;;;2.28;1.00;;;;;;;;;;5107433;22;20231;-73
2023/08/10 10:03:43;;;;;;;2.85;1.05;;;;;;;;;;5096308;28;20179;-72
2023/08/10 10:06:49;;;;;;;1.52;1.10;;;;;;;;;;5084155;28;20191;-73
2023/08/10 10:09:56;;;;;;;1.75;1.10;;;;;;;;;;5096553;28;20171;-73
2023/08/10 10:13:03;;;;;;;3.65;1.02;;;;;;;;;;5083745;28;20176;-73
2023/08/10 10:16:08;;;;;;;1.23;1.02;;;;;;;;;;5096392;28;20175;-73
2023/08/10 10:19:12;;;;;;;2.10;1.00;;;;;;;;;;5096393;28;20179;-74
2023/08/10 10:22:18;;;;;;;3.17;1.23;;;;;;;;;;5095881;28;20210;-73
2023/08/10 10:25:22;;;;;;;2.15;0.98;;;;;;;;;;5096539;28;20183;-73
2023/08/10 10:28:28;;;;;;;4.20;1.20;;;;;;;;;;5096421;28;20188;-74
2023/08/10 10:31:32;;;;;;;1.63;0.88;;;;;;;;;;5096064;28;20681;-73
2023/08/10 10:34:38;;;;;;;1.10;1.00;;;;;;;;;;5095752;28;20195;-74
2023/08/10 10:37:53;;;;;;;1.40;0.88;;;;;;;;;;5071929;28;20191;-73
2023/08/10 10:41:14;;;;;;;4.95;1.20;;;;;;;;;;5095541;28;20223;-73
2023/08/10 10:44:19;;;;;;;4.35;1.20;;;;;;;;;;5083704;28;20184;-74
2023/08/10 10:47:34;;;;;;;2.60;1.05;;;;;;;;;;5095587;28;20179;-74
2023/08/10 10:50:39;;;;;;;1.27;1.10;;;;;;;;;;5082989;28;20223;-73
2023/08/10 10:53:43;;;;;;;1.52;1.00;;;;;;;;;;5095482;28;20183;-74
2023/08/10 10:56:48;;;;;;;3.42;1.30;;;;;;;;;;5083189;28;20179;-74
2023/08/10 10:59:52;;;;;;;1.33;1.00;;;;;;;;;;5082835;28;20175;-74
2023/08/10 11:02:57;;;;;;;3.58;1.10;;;;;;;;;;5095117;28;20195;-73
2023/08/10 11:06:03;;;;;;;1.63;1.20;;;;;;;;;;5083014;28;20183;-74
2023/08/10 11:09:07;;;;;;;1.77;1.25;;;;;;;;;;5095139;28;20183;-73
2023/08/10 11:12:11;;;;;;;2.70;1.20;;;;;;;;;;5082459;28;20211;-73
2023/08/10 11:15:16;;;;;;;2.03;0.95;;;;;;;;;;5094961;28;20179;-74
2023/08/10 11:18:20;;;;;;;2.60;1.40;;;;;;;;;;5082465;28;20191;-73
2023/08/10 11:21:25;;;;;;;1.30;1.15;;;;;;;;;;5082373;28;20222;-73
2023/08/10 11:24:29;;;;;;;17.90;4.05;;;;;;;;;;5094738;28;20199;-73
2023/08/10 11:27:33;;;;;;;1.55;1.10;;;;;;;;;;5094727;28;20194;-73
2023/08/10 11:30:38;;;;;;;1.77;1.10;;;;;;;;;;5082144;28;20504;-73
2023/08/10 11:33:42;;;;;;;2.42;1.25;;;;;;;;;;5082184;28;20175;-73
2023/08/10 11:36:46;;;;;;;2.05;1.13;;;;;;;;;;5094834;28;20179;-73
2023/08/10 11:39:50;;;;;;;1.63;1.00;;;;;;;;;;5094791;28;20175;-73
2023/08/10 11:43:10;;;;;;;3.90;1.30;;;;;;;;;;5082497;28;20198;-73
2023/08/10 11:46:16;;;;;;;2.03;1.30;;;;;;;;;;5094652;28;20183;-73
2023/08/10 11:49:20;;;;;;;2.05;1.10;;;;;;;;;;5094835;28;20186;-73
2023/08/10 11:52:24;;;;;;;1.65;1.40;;;;;;;;;;5094268;28;20215;-73
2023/08/10 11:55:28;;;;;;;1.42;0.88;;;;;;;;;;5081792;28;20624;-73
2023/08/10 11:58:32;;;;;;;1.52;1.15;;;;;;;;;;5081999;28;20622;-72
2023/08/10 12:01:50;;;;;;;1.60;1.27;;;;;;;;;;5093807;28;20226;-72
2023/08/10 12:05:01;;;;;;;2.10;1.10;;;;;;;;;;5094448;28;20184;-72
2023/08/10 12:08:07;;;;;;;1.92;1.25;;;;;;;;;;5094172;28;20180;-72
2023/08/10 12:11:14;;;;;;;1.98;1.40;;;;;;;;;;5093742;28;20214;-72
2023/08/10 12:14:19;;;;;;;5.78;1.23;;;;;;;;;;5081764;28;20622;-72
2023/08/10 12:17:23;;;;;;;2.00;1.10;;;;;;;;;;5093938;28;20179;-72
2023/08/10 12:20:27;;;;;;;1.45;1.15;;;;;;;;;;5081324;28;20187;-72
2023/08/10 12:23:31;;;;;;;2.80;1.20;;;;;;;;;;5093664;28;20207;-72
2023/08/10 12:26:36;;;;;;;1.50;1.30;;;;;;;;;;5093692;28;20187;-72
2023/08/10 12:29:40;;;;;;;2.10;1.33;;;;;;;;;;5069715;28;20626;-72
2023/08/10 12:32:44;;;;;;;5.50;1.40;;;;;;;;;;5081376;28;20178;-72
2023/08/10 12:35:49;;;;;;;3.55;1.38;;;;;;;;;;5093535;28;20199;-72
2023/08/10 12:38:55;;;;;;;2.15;1.90;;;;;;;;;;5081003;28;20653;-72
2023/08/10 12:42:02;;;;;;;3.67;2.00;;;;;;;;;;5093679;28;20218;-72
2023/08/10 12:45:10;;;;;;;3.53;1.20;;;;;;;;;;5093380;28;20198;-72
2023/08/10 12:48:14;;;;;;;2.42;1.05;;;;;;;;;;5080967;28;20199;-72
2023/08/10 12:51:19;;;;;;;1.27;1.17;;;;;;;;;;5069606;28;20218;-72
2023/08/10 12:54:23;;;;;;;3.53;1.63;;;;;;;;;;5093359;28;20517;-72
2023/08/10 12:57:28;;;;;;;1.65;1.13;;;;;;;;;;5093582;28;20625;-73
2023/08/10 13:00:31;;;;;;;4.05;1.45;;;;;;;;;;5093282;28;20203;-73
2023/08/10 13:03:36;;;;;;;2.70;1.10;;;;;;;;;;5093196;28;20207;-73
2023/08/10 13:06:40;;;;;;;2.33;1.30;;;;;;;;;;5093233;28;20183;-72
2023/08/10 13:09:44;;;;;;;2.10;1.00;;;;;;;;;;5081036;28;20191;-72
2023/08/10 13:12:49;;;;;;;1.92;1.20;;;;;;;;;;5080999;28;20179;-73
2023/08/10 13:15:53;;;;;;;2.38;1.08;;;;;;;;;;5080703;28;20202;-73
2023/08/10 13:18:57;;;;;;;3.25;1.00;;;;;;;;;;5069758;28;20517;-72
2023/08/10 13:22:06;;;;;;;1.92;1.00;;;;;;;;;;5082830;28;20222;-73
2023/08/10 13:25:10;;;;;;;2.33;1.20;;;;;;;;;;5073383;28;20638;-72
2023/08/10 13:28:15;;;;;;;1.85;1.00;;;;;;;;;;5097435;28;20175;-72
2023/08/10 13:31:19;;;;;;;1.52;1.17;;;;;;;;;;5084571;28;20561;-72
2023/08/10 13:34:24;;;;;;;1.67;1.30;;;;;;;;;;5097658;28;20179;-72
2023/08/10 13:37:32;;;;;;;1.60;1.25;;;;;;;;;;5084837;28;20175;-72
2023/08/10 13:40:37;;;;;;;3.13;1.40;;;;;;;;;;5096751;28;20622;-73
2023/08/10 13:43:42;;;;;;;4.38;1.27;;;;;;;;;;5096813;28;20203;-73
2023/08/10 13:46:46;;;;;;;1.70;0.82;;;;;;;;;;5096875;28;20527;-72
2023/08/10 13:49:51;;;;;;;1.65;1.20;;;;;;;;;;5084227;28;20175;-73
2023/08/10 13:52:55;;;;;;;2.75;1.23;;;;;;;;;;5084074;28;20171;-73
2023/08/10 13:55:59;;;;;;;1.63;1.20;;;;;;;;;;5096750;28;20175;-72
2023/08/10 13:59:03;;;;;;;1.30;1.00;;;;;;;;;;5096480;28;20183;-72
2023/08/10 14:02:08;;;;;;;1.67;1.30;;;;;;;;;;5083716;28;20230;-73
2023/08/10 14:05:13;;;;;;;1.77;1.13;;;;;;;;;;5084239;28;20183;-73
2023/08/10 14:08:17;;;;;;;1.63;1.17;;;;;;;;;;5096286;28;20625;-72
2023/08/10 14:11:22;;;;;;;2.38;1.20;;;;;;;;;;5096329;28;20558;-72
2023/08/10 14:14:27;;;;;;;1.83;1.40;;;;;;;;;;5096206;28;20630;-73
2023/08/10 14:17:32;;;;;;;1.90;1.35;;;;;;;;;;5083654;28;20183;-73
2023/08/10 14:20:36;;;;;;;2.10;1.30;;;;;;;;;;5096012;28;20179;-72
2023/08/10 14:23:41;;;;;;;6.28;1.15;;;;;;;;;;5096033;28;20203;-73
2023/08/10 14:26:45;;;;;;;1.10;0.80;;;;;;;;;;5095955;28;20535;-72
2023/08/10 14:29:49;;;;;;;1.85;1.20;;;;;;;;;;5072172;28;20171;-73
2023/08/10 14:32:54;;;;;;;1.65;1.00;;;;;;;;;;5082879;28;20175;-73
2023/08/10 14:35:58;;;;;;;2.22;1.30;;;;;;;;;;5083549;28;20167;-73
2023/08/10 14:39:02;;;;;;;1.40;1.10;;;;;;;;;;5083329;28;20513;-72
2023/08/10 14:42:06;;;;;;;1.52;1.00;;;;;;;;;;5095597;28;20554;-73
2023/08/10 14:45:10;;;;;;;3.15;1.40;;;;;;;;;;5095959;28;20183;-72
2023/08/10 14:48:14;;;;;;;1.88;1.42;;;;;;;;;;5083074;28;20179;-72
2023/08/10 14:51:18;;;;;;;1.30;1.00;;;;;;;;;;5082925;28;20218;-73
2023/08/10 14:54:22;;;;;;;1.25;1.15;;;;;;;;;;5082975;28;20187;-73
2023/08/10 14:57:26;;;;;;;4.00;1.17;;;;;;;;;;5083257;28;20352;-73
2023/08/10 15:00:33;;;;;;;3.20;1.20;;;;;;;;;;5095289;28;20199;-73
2023/08/10 15:03:37;;;;;;;1.60;1.10;;;;;;;;;;5095446;28;20207;-72
2023/08/10 15:06:41;;;;;;;2.03;1.40;;;;;;;;;;5095166;28;20183;-72
2023/08/10 15:09:45;;;;;;;2.17;1.38;;;;;;;;;;5095107;28;20541;-73
2023/08/10 15:12:50;;;;;;;1.63;1.17;;;;;;;;;;5095510;28;20187;-73
2023/08/10 15:15:54;;;;;;;1.73;1.10;;;;;;;;;;5071608;28;20179;-73
2023/08/10 15:18:58;;;;;;;2.05;1.35;;;;;;;;;;5071075;28;20179;-73
2023/08/10 15:22:02;;;;;;;3.03;1.27;;;;;;;;;;5082426;28;20214;-73
2023/08/10 15:25:07;;;;;;;13.38;1.92;;;;;;;;;;5094836;28;20510;-71
2023/08/10 15:28:12;;;;;;;24.63;2.75;;;;;;;;;;5070954;28;20188;-71
2023/08/10 15:31:18;;;;;;;7.78;1.60;;;;;;;;;;5094778;28;20211;-71
2023/08/10 15:34:24;;;;;;;9.13;1.70;;;;;;;;;;5082477;28;20176;-71
2023/08/10 15:37:32;;;;;;;3.72;1.65;;;;;;;;;;5094837;28;20179;-72
2023/08/10 15:40:36;;;;;;;3.35;1.20;;;;;;;;;;5070595;28;20171;-71
2023/08/10 15:43:40;;;;;;;3.47;1.30;;;;;;;;;;5081702;28;20199;-73
2023/08/10 15:46:44;;;;;;;1.45;1.20;;;;;;;;;;5082046;28;20182;-72
2023/08/10 15:49:48;;;;;;;4.40;1.10;;;;;;;;;;5094479;28;20173;-72
2023/08/10 15:52:52;;;;;;;1.60;1.30;;;;;;;;;;5081788;28;20171;-72
2023/08/10 15:55:56;;;;;;;1.80;1.30;;;;;;;;;;5081887;28;20181;-73
2023/08/10 15:59:00;;;;;;;2.22;1.35;;;;;;;;;;5069967;28;20180;-72
2023/08/10 16:02:06;;;;;;;2.97;1.40;;;;;;;;;;5081349;28;20231;-71
2023/08/10 16:05:10;;;;;;;1.58;1.48;;;;;;;;;;5108275;22;20233;-74
2023/08/10 16:08:13;;;;;;;1.58;1.27;;;;;;;;;;5093926;28;20175;-73
2023/08/10 16:11:18;;;;;;;2.75;1.20;;;;;;;;;;5102321;28;20206;-73
2023/08/10 16:14:22;;;;;;;5.03;1.52;;;;;;;;;;5114247;28;20172;-73
2023/08/10 16:17:26;;;;;;;3.70;1.25;;;;;;;;;;5101602;28;20174;-73
2023/08/10 16:20:30;;;;;;;3.28;1.42;;;;;;;;;;5101434;28;20186;-74
2023/08/10 16:23:37;;;;;;;4.47;1.63;;;;;;;;;;5113882;28;20544;-74
2023/08/10 16:26:42;;;;;;;4.65;1.98;;;;;;;;;;5113828;28;20191;-74
2023/08/10 16:29:47;;;;;;;1.90;1.58;;;;;;;;;;5101351;28;20173;-74
2023/08/10 16:32:52;;;;;;;1.93;1.30;;;;;;;;;;5113796;28;20174;-73
2023/08/10 16:35:56;;;;;;;2.60;1.30;;;;;;;;;;5113658;28;20191;-74
2023/08/10 16:39:00;;;;;;;1.30;1.20;;;;;;;;;;5101314;28;20658;-73
2023/08/10 16:42:04;;;;;;;1.47;1.30;;;;;;;;;;5113634;28;20216;-73
2023/08/10 16:45:09;;;;;;;2.37;1.50;;;;;;;;;;5101147;28;20175;-73
2023/08/10 16:48:13;;;;;;;2.67;1.40;;;;;;;;;;5114196;28;20171;-73
2023/08/10 16:51:17;;;;;;;2.93;1.50;;;;;;;;;;5089868;28;20213;-74
2023/08/10 16:54:21;;;;;;;3.53;1.83;;;;;;;;;;5113608;28;20173;-74
2023/08/10 16:57:26;;;;;;;3.17;1.40;;;;;;;;;;5113626;28;20175;-73
2023/08/10 17:00:30;;;;;;;1.20;1.10;;;;;;;;;;5113518;28;20182;-73
2023/08/10 17:03:34;;;;;;;2.23;1.60;;;;;;;;;;5113679;28;20209;-74
2023/08/10 17:06:38;;;;;;;2.47;1.43;;;;;;;;;;5100911;28;20549;-73
2023/08/10 17:09:42;;;;;;;3.17;1.20;;;;;;;;;;5113574;28;20635;-73
2023/08/10 17:12:47;;;;;;;3.90;1.70;;;;;;;;;;5113434;28;20631;-73
2023/08/10 17:15:51;;;;;;;2.60;1.50;;;;;;;;;;5113375;28;20180;-73
2023/08/10 17:18:55;;;;;;;4.93;1.37;;;;;;;;;;5113546;28;20180;-73
2023/08/10 17:22:04;;;;;;;3.63;1.43;;;;;;;;;;5113369;28;20220;-73
2023/08/10 17:25:08;;;;;;;4.23;1.60;;;;;;;;;;5113253;28;20543;-74
2023/08/10 17:28:12;;;;;;;2.90;1.40;;;;;;;;;;5113328;28;20190;-74
2023/08/10 17:31:17;;;;;;;2.60;1.80;;;;;;;;;;5113183;28;20216;-73
2023/08/10 17:34:21;;;;;;;2.27;1.20;;;;;;;;;;5100807;28;20510;-73
2023/08/10 17:37:27;;;;;;;1.70;1.30;;;;;;;;;;5113514;28;20175;-73
2023/08/10 17:40:31;;;;;;;2.67;1.73;;;;;;;;;;5100629;28;20171;-73
2023/08/10 17:43:36;;;;;;;2.30;1.43;;;;;;;;;;5113225;28;20210;-74
2023/08/10 17:46:40;;;;;;;4.40;1.53;;;;;;;;;;5113192;28;20517;-73
2023/08/10 17:49:46;;;;;;;2.00;1.40;;;;;;;;;;5100661;28;20179;-73
2023/08/10 17:52:50;;;;;;;4.40;1.70;;;;;;;;;;5113113;28;20194;-73
2023/08/10 17:55:55;;;;;;;3.50;1.70;;;;;;;;;;5113056;28;20170;-73
2023/08/10 17:58:59;;;;;;;2.37;1.67;;;;;;;;;;5100589;28;20174;-73
2023/08/10 18:02:03;;;;;;;2.37;1.87;;;;;;;;;;5112978;28;20561;-73
2023/08/10 18:05:08;;;;;;;3.60;1.90;;;;;;;;;;5100348;28;20221;-73
2023/08/10 18:08:12;;;;;;;4.23;1.90;;;;;;;;;;5102428;28;20174;-73
2023/08/10 18:11:35;;;;;;;3.37;1.97;;;;;;;;;;5116759;28;20213;-73
2023/08/10 18:14:39;;;;;;;2.97;2.07;;;;;;;;;;5116626;28;20170;-73
2023/08/10 18:17:43;;;;;;;3.57;1.73;;;;;;;;;;5116541;28;20624;-73
2023/08/10 18:20:47;;;;;;;18.10;2.40;;;;;;;;;;5116404;28;20206;-73
2023/08/10 18:23:51;;;;;;;4.30;1.83;;;;;;;;;;5103771;28;20202;-73
2023/08/10 18:27:06;;;;;;;5.37;1.70;;;;;;;;;;5103746;28;20628;-73
2023/08/10 18:30:10;;;;;;;3.07;1.80;;;;;;;;;;5116702;28;20178;-73